Moreland, Georgia
Current Conditions -  °F | °C
As of 11:15 AM on Saturday 20 Dec 2014 (Local Time) from KCCO Reporting Station
Overcast Overcast  
Wind Chill: 48°   Ceiling: 500
Heat Index: 48°   Visibility: 7mi
Dew Point: 47°   Wind: 3mph
Humidity: 97%   Direction: 140°SE
Pressure: 30.21"   Gusts: NA
Location:  33.29°N, 84.77°W
Report Text: KCCO 201615Z AUTO 14003KT 7SM OVC005 09/08 A3021 RMK AO2 T00890084
Loading
Personal Weather Stations






























Interactive Weather Map New forecast layout! Learn more

10-Day Weather Forecast

Advertisements
Track Severe Weather on mobile